Time;durP1;ratioP1;P1;durP2;ratioP2;P2;SDS_P1;SDS_P2;PMS_P1;PMS_P2;Temp;Humidity;BMP_temperature;BMP_pressure;BME280_temperature;BME280_humidity;BME280_pressure;Samples;Min_cycle;Max_cycle;Signal;HPM_P1;HPM_P2
2022/10/19 00:02:03;;;;;;;4.53;0.50;;;;;;;;;;5070640;28;20045;-47
2022/10/19 00:04:29;;;;;;;2.45;0.50;;;;;;;;;;5072760;28;20117;-46
2022/10/19 00:06:57;;;;;;;3.30;0.65;;;;;;;;;;5059204;28;20056;-48
2022/10/19 00:09:24;;;;;;;6.35;0.68;;;;;;;;;;5072310;28;20044;-46
2022/10/19 00:12:00;;;;;;;5.03;0.60;;;;;;;;;;5071827;28;20067;-47
2022/10/19 00:14:28;;;;;;;3.50;0.80;;;;;;;;;;5066902;28;20485;-47
2022/10/19 00:17:04;;;;;;;4.28;0.70;;;;;;;;;;5071414;28;20052;-49
2022/10/19 00:22:14;;;;;;;5.40;0.77;;;;;;;;;;5071486;28;20066;-47
2022/10/19 00:24:45;;;;;;;7.05;0.70;;;;;;;;;;5068204;28;20044;-46
2022/10/19 00:27:11;;;;;;;5.72;0.95;;;;;;;;;;5061741;28;20048;-45
2022/10/19 00:29:41;;;;;;;3.40;1.02;;;;;;;;;;5073116;28;20060;-46
2022/10/19 00:34:50;;;;;;;2.38;0.45;;;;;;;;;;5068834;28;20052;-47
2022/10/19 00:37:18;;;;;;;3.65;0.73;;;;;;;;;;5058679;28;20052;-46
2022/10/19 00:39:47;;;;;;;4.28;0.80;;;;;;;;;;5061438;28;20048;-45
2022/10/19 00:42:14;;;;;;;2.97;0.52;;;;;;;;;;5052596;28;20049;-47
2022/10/19 00:45:08;;;;;;;4.32;0.73;;;;;;;;;;5053016;28;20151;-48
2022/10/19 00:47:41;;;;;;;4.75;0.65;;;;;;;;;;5055023;28;20048;-46
2022/10/19 00:50:10;;;;;;;3.90;0.57;;;;;;;;;;5072063;28;20604;-47
2022/10/19 00:52:39;;;;;;;4.82;0.50;;;;;;;;;;5074079;28;20056;-47
2022/10/19 00:55:11;;;;;;;2.00;0.40;;;;;;;;;;5084307;28;20048;-48
2022/10/19 00:57:39;;;;;;;2.65;0.40;;;;;;;;;;5073302;28;20044;-46
2022/10/19 01:00:15;;;;;;;5.60;0.50;;;;;;;;;;5071999;28;20711;-47
2022/10/19 01:02:46;;;;;;;6.78;0.60;;;;;;;;;;5071647;28;20465;-45
2022/10/19 01:05:23;;;;;;;2.53;0.60;;;;;;;;;;5072314;28;20063;-46
2022/10/19 01:07:52;;;;;;;2.03;0.60;;;;;;;;;;5071381;28;20055;-46
2022/10/19 01:10:29;;;;;;;4.13;0.50;;;;;;;;;;5072492;28;20056;-46
2022/10/19 01:13:05;;;;;;;3.00;0.50;;;;;;;;;;5071059;28;20059;-47
2022/10/19 01:15:40;;;;;;;2.35;0.68;;;;;;;;;;5072215;28;20138;-47
2022/10/19 01:18:16;;;;;;;3.20;0.60;;;;;;;;;;5071128;28;20040;-47
2022/10/19 01:21:13;;;;;;;3.72;0.73;;;;;;;;;;5071385;28;20061;-47
2022/10/19 01:24:01;;;;;;;3.67;0.50;;;;;;;;;;5067617;28;20053;-48
2022/10/19 01:26:37;;;;;;;1.98;0.47;;;;;;;;;;5085566;28;20520;-46
2022/10/19 01:29:12;;;;;;;3.75;0.52;;;;;;;;;;5071348;28;20567;-46
2022/10/19 01:31:47;;;;;;;2.25;0.35;;;;;;;;;;5071782;28;20044;-46
2022/10/19 01:34:18;;;;;;;2.33;0.60;;;;;;;;;;5071882;28;20045;-46
2022/10/19 01:36:51;;;;;;;2.80;0.60;;;;;;;;;;5071689;28;20366;-49
2022/10/19 01:39:26;;;;;;;3.72;0.65;;;;;;;;;;5071753;28;20048;-46
2022/10/19 01:41:57;;;;;;;3.00;0.30;;;;;;;;;;5069393;28;20521;-47
2022/10/19 01:44:27;;;;;;;2.53;0.40;;;;;;;;;;5069179;28;20056;-47
2022/10/19 01:46:56;;;;;;;2.33;0.30;;;;;;;;;;5068505;28;20056;-46
2022/10/19 01:49:27;;;;;;;4.18;0.70;;;;;;;;;;5070599;28;20491;-46
2022/10/19 01:51:56;;;;;;;2.08;0.52;;;;;;;;;;5070679;28;20052;-46
2022/10/19 01:54:29;;;;;;;0.82;0.20;;;;;;;;;;5069825;28;20044;-47
2022/10/19 01:56:57;;;;;;;3.08;0.47;;;;;;;;;;5070684;28;20153;-46
2022/10/19 01:59:28;;;;;;;5.35;0.70;;;;;;;;;;5058406;28;20051;-45
2022/10/19 02:02:10;;;;;;;3.40;0.55;;;;;;;;;;5068565;28;20059;-46
2022/10/19 02:04:47;;;;;;;3.70;0.68;;;;;;;;;;5072610;28;20453;-46
2022/10/19 02:07:16;;;;;;;2.13;0.40;;;;;;;;;;5072868;28;20080;-46
2022/10/19 02:09:44;;;;;;;3.60;0.47;;;;;;;;;;5070679;28;20040;-48
2022/10/19 02:12:11;;;;;;;2.80;0.50;;;;;;;;;;5070300;28;20377;-48
2022/10/19 02:14:42;;;;;;;5.15;0.70;;;;;;;;;;5069832;28;20057;-47
2022/10/19 02:17:16;;;;;;;1.92;0.50;;;;;;;;;;5070769;28;20063;-47
2022/10/19 02:19:45;;;;;;;2.38;0.40;;;;;;;;;;5073745;28;20049;-49
2022/10/19 02:22:14;;;;;;;3.55;0.75;;;;;;;;;;5072982;28;20057;-47
2022/10/19 02:24:44;;;;;;;3.97;0.40;;;;;;;;;;5067083;28;20107;-47
2022/10/19 02:27:10;;;;;;;2.63;0.60;;;;;;;;;;5071954;28;20057;-46
2022/10/19 02:29:46;;;;;;;0.95;0.30;;;;;;;;;;5056464;28;20049;-47
2022/10/19 02:32:21;;;;;;;3.03;0.47;;;;;;;;;;5070188;28;20634;-48
2022/10/19 02:34:49;;;;;;;2.05;0.43;;;;;;;;;;5070127;28;20045;-47
2022/10/19 02:37:15;;;;;;;3.75;0.50;;;;;;;;;;5070097;28;20064;-47
2022/10/19 02:39:44;;;;;;;2.03;0.40;;;;;;;;;;5057755;28;20052;-47
2022/10/19 02:42:14;;;;;;;2.75;0.45;;;;;;;;;;5066286;28;20472;-47
2022/10/19 02:44:51;;;;;;;2.28;0.35;;;;;;;;;;5057390;28;20055;-48
2022/10/19 02:47:23;;;;;;;2.38;0.47;;;;;;;;;;5080347;28;20071;-47
2022/10/19 02:49:53;;;;;;;1.60;0.30;;;;;;;;;;5069589;28;20044;-47
2022/10/19 02:52:19;;;;;;;3.08;0.73;;;;;;;;;;5080520;28;20064;-46
2022/10/19 02:54:47;;;;;;;3.10;1.05;;;;;;;;;;5059180;28;20363;-47
2022/10/19 02:57:18;;;;;;;2.25;0.60;;;;;;;;;;5067568;28;20149;-47
2022/10/19 02:59:47;;;;;;;3.17;0.60;;;;;;;;;;5069971;28;20409;-46
2022/10/19 03:02:14;;;;;;;2.88;0.55;;;;;;;;;;5069801;28;20171;-47
2022/10/19 03:04:43;;;;;;;1.27;0.40;;;;;;;;;;5068306;28;20393;-47
2022/10/19 03:07:13;;;;;;;3.28;0.52;;;;;;;;;;5070094;28;20056;-47
2022/10/19 03:09:43;;;;;;;1.52;0.40;;;;;;;;;;5070207;28;20059;-47
2022/10/19 03:12:14;;;;;;;6.60;0.80;;;;;;;;;;5083302;28;20052;-47
2022/10/19 03:14:43;;;;;;;3.75;0.77;;;;;;;;;;5070323;28;20052;-47
2022/10/19 03:17:12;;;;;;;2.35;0.30;;;;;;;;;;5070957;28;20119;-46
2022/10/19 03:19:42;;;;;;;2.13;0.52;;;;;;;;;;5069401;28;20462;-47
2022/10/19 03:22:18;;;;;;;1.38;0.50;;;;;;;;;;5070113;28;20063;-46
2022/10/19 03:24:45;;;;;;;4.65;0.60;;;;;;;;;;5072861;28;20056;-48
2022/10/19 03:27:12;;;;;;;2.22;0.43;;;;;;;;;;5082382;28;20062;-48
2022/10/19 03:29:42;;;;;;;1.80;0.38;;;;;;;;;;5069301;28;20473;-46
2022/10/19 03:32:11;;;;;;;2.40;0.73;;;;;;;;;;5077554;28;20577;-46
2022/10/19 03:34:38;;;;;;;2.22;0.47;;;;;;;;;;5075938;28;20135;-48
2022/10/19 03:37:08;;;;;;;3.13;0.40;;;;;;;;;;5071109;28;20052;-46
2022/10/19 03:39:39;;;;;;;1.27;0.30;;;;;;;;;;5074490;28;20048;-47
2022/10/19 03:42:09;;;;;;;0.75;0.30;;;;;;;;;;5061354;28;20127;-46
2022/10/19 03:44:38;;;;;;;1.52;0.47;;;;;;;;;;5073778;28;20083;-47
2022/10/19 03:47:07;;;;;;;2.40;0.40;;;;;;;;;;5055247;28;20375;-47
2022/10/19 03:52:17;;;;;;;2.33;0.30;;;;;;;;;;5067212;28;20593;-46
2022/10/19 03:54:52;;;;;;;0.80;0.40;;;;;;;;;;5063471;28;20516;-50
2022/10/19 03:57:19;;;;;;;;;;;;;;;;;;5068448;28;20045;-47
2022/10/19 03:59:49;;;;;;;1.65;0.28;;;;;;;;;;5071970;28;19924;-47
2022/10/19 04:02:17;;;;;;;0.68;0.20;;;;;;;;;;5072159;28;20052;-45
2022/10/19 04:04:46;;;;;;;1.23;0.25;;;;;;;;;;5072478;28;20516;-47
2022/10/19 04:07:15;;;;;;;0.70;0.25;;;;;;;;;;5070246;28;20057;-46
2022/10/19 04:09:42;;;;;;;0.20;0.20;;;;;;;;;;5059685;28;20048;-47
2022/10/19 04:12:16;;;;;;;0.28;0.10;;;;;;;;;;5083977;28;20048;-47
2022/10/19 04:14:44;;;;;;;1.10;0.30;;;;;;;;;;5092389;28;20048;-46
2022/10/19 04:17:11;;;;;;;0.95;0.20;;;;;;;;;;5092527;28;20067;-47
2022/10/19 04:19:40;;;;;;;1.60;0.32;;;;;;;;;;5073122;28;20055;-47
2022/10/19 04:22:10;;;;;;;1.17;0.20;;;;;;;;;;5071774;28;20056;-47
2022/10/19 04:24:37;;;;;;;0.57;0.20;;;;;;;;;;5072411;28;20052;-47
2022/10/19 04:27:05;;;;;;;2.65;0.30;;;;;;;;;;5071995;28;20068;-46
2022/10/19 04:29:35;;;;;;;0.77;0.28;;;;;;;;;;5066766;28;20040;-47
2022/10/19 04:32:03;;;;;;;1.42;0.30;;;;;;;;;;5067772;28;20453;-49
2022/10/19 04:34:31;;;;;;;0.70;0.25;;;;;;;;;;5074021;28;20064;-50
2022/10/19 04:37:00;;;;;;;3.97;0.47;;;;;;;;;;5063502;28;20048;-47
2022/10/19 04:39:30;;;;;;;1.00;0.35;;;;;;;;;;5072933;28;20048;-47
2022/10/19 04:41:57;;;;;;;0.47;0.20;;;;;;;;;;5072826;28;20055;-47
2022/10/19 04:44:26;;;;;;;0.93;0.20;;;;;;;;;;5060312;28;20062;-48
2022/10/19 04:47:05;;;;;;;2.03;0.40;;;;;;;;;;5071974;28;20052;-47
2022/10/19 04:49:36;;;;;;;0.47;0.20;;;;;;;;;;5072409;28;20056;-47
2022/10/19 04:52:05;;;;;;;0.57;0.25;;;;;;;;;;5080799;28;222741;-48
2022/10/19 04:54:34;;;;;;;0.40;0.20;;;;;;;;;;5074423;28;20132;-47
2022/10/19 04:57:04;;;;;;;0.95;0.32;;;;;;;;;;5058868;28;20045;-46
2022/10/19 04:59:32;;;;;;;0.70;0.20;;;;;;;;;;5073962;28;20044;-47
2022/10/19 05:02:13;;;;;;;1.98;0.30;;;;;;;;;;5070451;28;20127;-47
2022/10/19 05:04:40;;;;;;;2.00;0.30;;;;;;;;;;5073056;28;20127;-46
2022/10/19 05:07:10;;;;;;;0.47;0.20;;;;;;;;;;5072476;28;20055;-48
2022/10/19 05:09:39;;;;;;;1.33;0.40;;;;;;;;;;5075185;28;20055;-48
2022/10/19 05:12:09;;;;;;;1.92;0.40;;;;;;;;;;5074428;28;20052;-50
2022/10/19 05:14:35;;;;;;;0.68;0.50;;;;;;;;;;5074359;28;20048;-47
2022/10/19 05:17:05;;;;;;;1.95;0.47;;;;;;;;;;5066035;28;20053;-47
2022/10/19 05:19:35;;;;;;;1.13;0.38;;;;;;;;;;5071783;28;20044;-45
2022/10/19 05:22:04;;;;;;;1.30;0.40;;;;;;;;;;5074099;28;20068;-47
2022/10/19 05:24:33;;;;;;;1.05;0.40;;;;;;;;;;5074070;28;20052;-46
2022/10/19 05:27:03;;;;;;;3.08;0.30;;;;;;;;;;5069012;28;20059;-47
2022/10/19 05:29:33;;;;;;;0.63;0.40;;;;;;;;;;5073097;28;20045;-50
2022/10/19 05:32:02;;;;;;;0.68;0.30;;;;;;;;;;5057114;28;20084;-51
2022/10/19 05:34:40;;;;;;;1.83;0.40;;;;;;;;;;5074656;28;20132;-46
2022/10/19 05:37:10;;;;;;;2.17;0.60;;;;;;;;;;5056884;28;20060;-47
2022/10/19 05:39:38;;;;;;;1.90;0.60;;;;;;;;;;5061685;28;20132;-49
2022/10/19 05:42:16;;;;;;;2.63;0.40;;;;;;;;;;5058481;28;20063;-46
2022/10/19 05:44:43;;;;;;;3.03;0.50;;;;;;;;;;5060007;28;20240;-46
2022/10/19 05:47:13;;;;;;;1.98;0.50;;;;;;;;;;5059244;28;20056;-49
2022/10/19 05:49:42;;;;;;;3.13;0.30;;;;;;;;;;5071654;28;20523;-47
2022/10/19 05:52:09;;;;;;;0.50;0.20;;;;;;;;;;5061646;28;20057;-48
2022/10/19 05:54:40;;;;;;;0.93;0.30;;;;;;;;;;5072253;28;20053;-48
2022/10/19 05:57:09;;;;;;;1.25;0.30;;;;;;;;;;5072015;28;20114;-48
2022/10/19 05:59:44;;;;;;;1.85;0.40;;;;;;;;;;5067824;28;20424;-46
2022/10/19 06:02:16;;;;;;;1.25;0.30;;;;;;;;;;5073583;28;20048;-48
2022/10/19 06:04:58;;;;;;;2.50;0.52;;;;;;;;;;5073456;28;20053;-47
2022/10/19 06:07:26;;;;;;;4.80;0.80;;;;;;;;;;5072921;28;20056;-47
2022/10/19 06:10:00;;;;;;;5.55;1.05;;;;;;;;;;5074109;28;20044;-48
2022/10/19 06:12:27;;;;;;;2.67;0.68;;;;;;;;;;5059021;28;20056;-47
2022/10/19 06:14:58;;;;;;;1.70;0.88;;;;;;;;;;5072984;28;20056;-47
2022/10/19 06:17:27;;;;;;;1.27;0.40;;;;;;;;;;5059084;28;20049;-47
2022/10/19 06:19:55;;;;;;;1.38;0.50;;;;;;;;;;5052828;28;20049;-47
2022/10/19 06:22:22;;;;;;;0.85;0.30;;;;;;;;;;5052946;28;20048;-47
2022/10/19 06:24:55;;;;;;;0.80;0.30;;;;;;;;;;5071635;28;20063;-48
2022/10/19 06:27:24;;;;;;;1.17;0.40;;;;;;;;;;5070850;28;20049;-50
2022/10/19 06:29:54;;;;;;;3.08;0.40;;;;;;;;;;5057628;28;20114;-47
2022/10/19 06:32:21;;;;;;;2.35;0.40;;;;;;;;;;5061350;28;20049;-49
2022/10/19 06:34:49;;;;;;;0.95;0.30;;;;;;;;;;5064327;28;20150;-46
2022/10/19 06:37:21;;;;;;;2.17;0.55;;;;;;;;;;5052620;28;20045;-47
2022/10/19 06:39:48;;;;;;;2.10;0.50;;;;;;;;;;5062631;28;20458;-47
2022/10/19 06:42:17;;;;;;;1.88;0.55;;;;;;;;;;5051664;28;20049;-46
2022/10/19 06:44:48;;;;;;;1.55;0.40;;;;;;;;;;5053782;28;20060;-47
2022/10/19 06:47:18;;;;;;;1.98;0.50;;;;;;;;;;5051749;28;20092;-48
2022/10/19 06:49:46;;;;;;;3.72;0.60;;;;;;;;;;5051997;28;20084;-47
2022/10/19 06:52:13;;;;;;;1.75;0.30;;;;;;;;;;5051800;28;20373;-48
2022/10/19 06:54:46;;;;;;;0.57;0.20;;;;;;;;;;5068723;28;20135;-47
2022/10/19 06:57:16;;;;;;;1.42;0.47;;;;;;;;;;5072023;28;20480;-50
2022/10/19 06:59:44;;;;;;;0.55;0.22;;;;;;;;;;5069920;28;20040;-47
2022/10/19 07:02:14;;;;;;;1.45;0.40;;;;;;;;;;5067533;28;20060;-48
2022/10/19 07:04:44;;;;;;;1.75;0.50;;;;;;;;;;5052970;28;20136;-48
2022/10/19 07:07:13;;;;;;;1.25;0.40;;;;;;;;;;5052494;28;20488;-47
2022/10/19 07:09:42;;;;;;;1.83;0.60;;;;;;;;;;5059290;28;20052;-47
2022/10/19 07:12:19;;;;;;;0.68;0.30;;;;;;;;;;5071891;28;20059;-47
2022/10/19 07:14:50;;;;;;;1.17;0.45;;;;;;;;;;5052323;28;20052;-47
2022/10/19 07:17:17;;;;;;;2.65;0.40;;;;;;;;;;5065410;28;20052;-48
2022/10/19 07:19:43;;;;;;;1.17;0.43;;;;;;;;;;5085660;28;20048;-48
2022/10/19 07:22:13;;;;;;;0.90;0.40;;;;;;;;;;5083639;28;20056;-47
2022/10/19 07:24:42;;;;;;;2.97;0.38;;;;;;;;;;5076111;28;20045;-48
2022/10/19 07:27:24;;;;;;;2.15;0.55;;;;;;;;;;5071741;28;20136;-47
2022/10/19 07:29:54;;;;;;;2.33;0.45;;;;;;;;;;5071914;28;20327;-46
2022/10/19 07:32:21;;;;;;;2.30;0.35;;;;;;;;;;5071948;28;20053;-47
2022/10/19 07:34:51;;;;;;;1.75;0.35;;;;;;;;;;5072053;28;20048;-47
2022/10/19 07:37:20;;;;;;;2.45;0.40;;;;;;;;;;5079955;28;20063;-47
2022/10/19 07:39:50;;;;;;;2.92;0.65;;;;;;;;;;5075140;28;20052;-47
2022/10/19 07:42:19;;;;;;;2.10;0.47;;;;;;;;;;5078115;28;20449;-48
2022/10/19 07:44:46;;;;;;;2.28;0.60;;;;;;;;;;5078722;28;20059;-49
2022/10/19 07:47:16;;;;;;;1.27;0.32;;;;;;;;;;5076429;28;20051;-47
2022/10/19 07:49:46;;;;;;;1.48;0.40;;;;;;;;;;5080078;28;20045;-46
2022/10/19 07:52:15;;;;;;;1.30;0.40;;;;;;;;;;5071837;28;20052;-47
2022/10/19 07:54:41;;;;;;;1.13;0.30;;;;;;;;;;5063373;28;20127;-47
2022/10/19 07:57:11;;;;;;;4.43;0.50;;;;;;;;;;5070524;28;20052;-47
2022/10/19 07:59:54;;;;;;;1.27;0.40;;;;;;;;;;5071882;28;20054;-46
2022/10/19 08:02:24;;;;;;;0.82;0.40;;;;;;;;;;5086275;28;20052;-47
2022/10/19 08:04:50;;;;;;;1.73;0.50;;;;;;;;;;5083269;28;20067;-47
2022/10/19 08:07:18;;;;;;;1.00;0.30;;;;;;;;;;5073854;28;20118;-47
2022/10/19 08:09:46;;;;;;;2.03;0.32;;;;;;;;;;5072952;28;20434;-47
2022/10/19 08:12:16;;;;;;;1.88;0.30;;;;;;;;;;5083741;28;20396;-50
2022/10/19 08:14:52;;;;;;;1.13;0.30;;;;;;;;;;5063718;28;20052;-48
2022/10/19 08:17:20;;;;;;;0.50;0.30;;;;;;;;;;5092734;28;20051;-47
2022/10/19 08:19:47;;;;;;;1.48;0.25;;;;;;;;;;5063301;28;20372;-47
2022/10/19 08:22:17;;;;;;;1.20;0.40;;;;;;;;;;5093618;28;20048;-50
2022/10/19 08:24:47;;;;;;;0.50;0.35;;;;;;;;;;5075528;28;20048;-49
2022/10/19 08:27:14;;;;;;;1.15;0.30;;;;;;;;;;5067226;28;20151;-47
2022/10/19 08:29:44;;;;;;;3.80;0.40;;;;;;;;;;5084707;28;20051;-47
2022/10/19 08:32:19;;;;;;;0.20;0.20;;;;;;;;;;5083968;28;20056;-46
2022/10/19 08:34:48;;;;;;;0.20;0.13;;;;;;;;;;5067171;28;20063;-47
2022/10/19 08:37:18;;;;;;;0.47;0.28;;;;;;;;;;5088062;28;20078;-47
2022/10/19 08:39:48;;;;;;;1.00;0.40;;;;;;;;;;5061487;28;20107;-47
2022/10/19 08:42:20;;;;;;;0.50;0.22;;;;;;;;;;5065697;28;20079;-47
2022/10/19 08:45:11;;;;;;;0.57;0.30;;;;;;;;;;5060662;28;20469;-50
2022/10/19 08:47:52;;;;;;;1.73;0.30;;;;;;;;;;5048675;28;20058;-47
2022/10/19 08:50:28;;;;;;;0.68;0.20;;;;;;;;;;5074153;28;20491;-48
2022/10/19 08:53:00;;;;;;;1.88;0.30;;;;;;;;;;5075462;28;20045;-47
2022/10/19 08:55:33;;;;;;;2.05;0.40;;;;;;;;;;5074920;28;20111;-46
2022/10/19 08:58:03;;;;;;;2.20;0.40;;;;;;;;;;5066168;28;20048;-46
2022/10/19 09:00:36;;;;;;;2.13;0.30;;;;;;;;;;5074279;28;20617;-46
2022/10/19 09:03:15;;;;;;;1.45;0.50;;;;;;;;;;5075215;28;20048;-47
2022/10/19 09:05:46;;;;;;;1.17;0.30;;;;;;;;;;5074807;28;20058;-47
2022/10/19 09:08:13;;;;;;;2.28;0.40;;;;;;;;;;5074849;28;20052;-47
2022/10/19 09:10:42;;;;;;;2.85;0.50;;;;;;;;;;5074612;28;20056;-50
2022/10/19 09:13:18;;;;;;;0.40;0.20;;;;;;;;;;5081468;28;20059;-47
2022/10/19 09:15:48;;;;;;;1.23;0.30;;;;;;;;;;5093838;28;20048;-48
2022/10/19 09:18:28;;;;;;;2.47;0.55;;;;;;;;;;5055038;28;20052;-48
2022/10/19 09:21:05;;;;;;;2.30;0.50;;;;;;;;;;5055015;28;20099;-47
2022/10/19 09:23:36;;;;;;;1.55;0.30;;;;;;;;;;5064437;28;20048;-50
2022/10/19 09:26:06;;;;;;;1.05;0.20;;;;;;;;;;5074122;28;20053;-46
2022/10/19 09:28:42;;;;;;;0.68;0.28;;;;;;;;;;5079871;28;20055;-49
2022/10/19 09:31:13;;;;;;;1.00;0.25;;;;;;;;;;5081695;28;20049;-49
2022/10/19 09:33:43;;;;;;;2.10;0.35;;;;;;;;;;5072991;28;20055;-50
2022/10/19 09:36:12;;;;;;;0.80;0.30;;;;;;;;;;5074852;28;20063;-47
2022/10/19 09:38:40;;;;;;;2.78;0.40;;;;;;;;;;5074310;28;20055;-47
2022/10/19 09:41:24;;;;;;;1.50;0.40;;;;;;;;;;5074825;28;20045;-47
2022/10/19 09:44:00;;;;;;;0.75;0.20;;;;;;;;;;5073198;28;20500;-48
2022/10/19 09:46:30;;;;;;;1.35;0.30;;;;;;;;;;5081528;28;20087;-47
2022/10/19 09:49:01;;;;;;;2.05;0.52;;;;;;;;;;5068133;28;20053;-47
2022/10/19 09:51:38;;;;;;;0.73;0.25;;;;;;;;;;5053858;28;20092;-47
2022/10/19 09:54:05;;;;;;;1.20;0.30;;;;;;;;;;5068179;28;20060;-47
2022/10/19 09:56:39;;;;;;;3.55;0.40;;;;;;;;;;5073187;28;20076;-47
2022/10/19 09:59:20;;;;;;;2.28;0.30;;;;;;;;;;5077394;28;20055;-48
2022/10/19 10:02:01;;;;;;;4.47;1.05;;;;;;;;;;5073854;28;20049;-49
2022/10/19 10:04:35;;;;;;;0.70;0.20;;;;;;;;;;5061875;28;20055;-47
2022/10/19 10:07:03;;;;;;;6.45;1.17;;;;;;;;;;5073160;28;20092;-48
2022/10/19 10:09:32;;;;;;;1.77;0.40;;;;;;;;;;5061038;28;20052;-46
2022/10/19 10:11:59;;;;;;;2.28;0.20;;;;;;;;;;5085352;28;20105;-48
2022/10/19 10:14:28;;;;;;;2.47;0.40;;;;;;;;;;5081130;28;20075;-47
2022/10/19 10:16:56;;;;;;;1.10;0.65;;;;;;;;;;5073222;28;20053;-47
2022/10/19 10:19:36;;;;;;;0.60;0.25;;;;;;;;;;5086931;28;20048;-50
2022/10/19 10:22:22;;;;;;;1.65;0.40;;;;;;;;;;5083153;28;20057;-49
2022/10/19 10:24:58;;;;;;;1.52;0.40;;;;;;;;;;5069608;28;20072;-48
2022/10/19 10:27:39;;;;;;;2.47;0.80;;;;;;;;;;5064428;28;20102;-47
2022/10/19 10:30:17;;;;;;;3.50;0.57;;;;;;;;;;5072372;28;20048;-47
2022/10/19 10:32:48;;;;;;;1.25;0.38;;;;;;;;;;5073660;28;20052;-48
2022/10/19 10:35:22;;;;;;;0.60;0.30;;;;;;;;;;5070827;28;20535;-47
2022/10/19 10:38:03;;;;;;;0.60;0.28;;;;;;;;;;5072957;28;20453;-47
2022/10/19 10:40:33;;;;;;;2.30;0.70;;;;;;;;;;5058875;28;20453;-47
2022/10/19 10:43:06;;;;;;;1.45;0.30;;;;;;;;;;5073605;28;20056;-47
2022/10/19 10:45:38;;;;;;;0.43;0.20;;;;;;;;;;5071794;28;20044;-50
2022/10/19 10:48:14;;;;;;;3.00;0.35;;;;;;;;;;5073269;28;20052;-48
2022/10/19 10:50:50;;;;;;;1.73;0.38;;;;;;;;;;5071851;28;20058;-47
2022/10/19 10:53:42;;;;;;;1.33;0.25;;;;;;;;;;5073215;28;20052;-47
2022/10/19 10:56:23;;;;;;;1.05;0.40;;;;;;;;;;5062171;28;20067;-49
2022/10/19 10:59:04;;;;;;;1.50;0.70;;;;;;;;;;5072373;28;20056;-47
2022/10/19 11:01:38;;;;;;;3.72;0.57;;;;;;;;;;5064086;28;20131;-47
2022/10/19 11:04:08;;;;;;;0.82;0.40;;;;;;;;;;5072027;28;20394;-47
2022/10/19 11:06:37;;;;;;;3.22;0.22;;;;;;;;;;5073185;28;20048;-47
2022/10/19 11:09:16;;;;;;;1.45;0.30;;;;;;;;;;5072827;28;20374;-47
2022/10/19 11:11:48;;;;;;;1.58;0.20;;;;;;;;;;5082459;28;20059;-47
2022/10/19 11:14:23;;;;;;;3.70;0.40;;;;;;;;;;5092813;28;20059;-47
2022/10/19 11:16:51;;;;;;;1.08;0.28;;;;;;;;;;5063209;28;20057;-47
2022/10/19 11:19:23;;;;;;;1.15;0.50;;;;;;;;;;5081897;28;20472;-49
2022/10/19 11:22:00;;;;;;;1.98;0.40;;;;;;;;;;5081034;28;20047;-48
2022/10/19 11:24:34;;;;;;;1.33;0.35;;;;;;;;;;5077716;28;20056;-48
2022/10/19 11:27:09;;;;;;;1.05;0.30;;;;;;;;;;5059338;28;20057;-48
2022/10/19 11:29:45;;;;;;;4.77;1.00;;;;;;;;;;5060468;28;20048;-46
2022/10/19 11:32:16;;;;;;;1.15;0.38;;;;;;;;;;5067539;28;20056;-47
2022/10/19 11:34:49;;;;;;;0.52;0.30;;;;;;;;;;5070692;28;20484;-45
2022/10/19 11:37:20;;;;;;;0.82;0.20;;;;;;;;;;5072273;28;20131;-45
2022/10/19 11:39:55;;;;;;;3.10;0.32;;;;;;;;;;5073437;28;20380;-48
2022/10/19 11:42:24;;;;;;;1.63;0.30;;;;;;;;;;5068448;28;20045;-45
2022/10/19 11:44:56;;;;;;;0.73;0.10;;;;;;;;;;5071588;28;20048;-43
2022/10/19 11:47:38;;;;;;;0.70;0.40;;;;;;;;;;5071640;28;20063;-44
2022/10/19 11:50:15;;;;;;;0.55;0.15;;;;;;;;;;5074410;28;20049;-43
2022/10/19 11:52:52;;;;;;;1.83;0.30;;;;;;;;;;5061298;28;20052;-44
2022/10/19 11:55:27;;;;;;;0.55;0.20;;;;;;;;;;5072241;28;20056;-44
2022/10/19 11:57:57;;;;;;;3.85;0.20;;;;;;;;;;5074951;28;20057;-44
2022/10/19 12:00:28;;;;;;;1.48;0.25;;;;;;;;;;5074888;28;20143;-44
2022/10/19 12:03:14;;;;;;;1.90;0.47;;;;;;;;;;5075707;28;20054;-44
2022/10/19 12:05:48;;;;;;;1.52;0.45;;;;;;;;;;5075097;28;20560;-43
2022/10/19 12:08:28;;;;;;;0.83;0.40;;;;;;;;;;5076896;28;20469;-45
2022/10/19 12:11:03;;;;;;;2.42;0.30;;;;;;;;;;5075663;28;20162;-43
2022/10/19 12:13:36;;;;;;;2.47;0.40;;;;;;;;;;5066550;28;20080;-43
2022/10/19 12:16:06;;;;;;;0.57;0.30;;;;;;;;;;5056028;28;20563;-43
2022/10/19 12:18:38;;;;;;;0.57;0.20;;;;;;;;;;5075892;28;20045;-45
2022/10/19 12:21:09;;;;;;;1.30;0.40;;;;;;;;;;5074768;28;20049;-43
2022/10/19 12:23:41;;;;;;;2.28;0.28;;;;;;;;;;5073369;28;20044;-45
2022/10/19 12:26:17;;;;;;;2.10;0.30;;;;;;;;;;5064578;28;20053;-44
2022/10/19 12:28:55;;;;;;;0.70;0.30;;;;;;;;;;5055244;28;20045;-45
2022/10/19 12:31:31;;;;;;;1.00;0.40;;;;;;;;;;5085334;28;20198;-43
2022/10/19 12:34:04;;;;;;;2.00;0.40;;;;;;;;;;5066180;28;20461;-43
2022/10/19 12:36:35;;;;;;;0.90;0.28;;;;;;;;;;5064378;28;20048;-44
2022/10/19 12:39:10;;;;;;;0.60;0.40;;;;;;;;;;5088951;28;20048;-45
2022/10/19 12:41:51;;;;;;;1.45;0.25;;;;;;;;;;5064656;28;20052;-45
2022/10/19 12:44:29;;;;;;;0.63;0.50;;;;;;;;;;5060294;28;20053;-47
2022/10/19 12:46:58;;;;;;;1.27;0.40;;;;;;;;;;5071397;28;20045;-46
2022/10/19 12:49:53;;;;;;;2.80;0.60;;;;;;;;;;5057480;28;20138;-49
2022/10/19 12:52:39;;;;;;;0.93;0.40;;;;;;;;;;5060042;28;20040;-47
2022/10/19 12:55:33;;;;;;;2.20;0.52;;;;;;;;;;5061015;28;20080;-47
2022/10/19 12:58:21;;;;;;;2.30;0.50;;;;;;;;;;5067203;28;20149;-43
2022/10/19 13:00:58;;;;;;;1.85;0.40;;;;;;;;;;5070716;28;20055;-43
2022/10/19 13:03:27;;;;;;;1.13;0.30;;;;;;;;;;5064251;28;20074;-45
2022/10/19 13:06:00;;;;;;;2.92;0.20;;;;;;;;;;5068753;28;20056;-44
2022/10/19 13:08:29;;;;;;;1.15;0.38;;;;;;;;;;5065355;28;20059;-44
2022/10/19 13:11:14;;;;;;;1.55;0.22;;;;;;;;;;5077454;28;20056;-44
2022/10/19 13:13:59;;;;;;;0.30;0.20;;;;;;;;;;5059843;28;20048;-45
2022/10/19 13:16:32;;;;;;;1.70;0.25;;;;;;;;;;5073618;28;20445;-45
2022/10/19 13:19:06;;;;;;;0.35;0.20;;;;;;;;;;5072542;28;20053;-46
2022/10/19 13:21:49;;;;;;;0.93;0.22;;;;;;;;;;5073030;28;20559;-45
2022/10/19 13:24:27;;;;;;;2.10;0.32;;;;;;;;;;5067302;28;20413;-45
2022/10/19 13:27:11;;;;;;;0.63;0.20;;;;;;;;;;5062798;28;20052;-45
2022/10/19 13:29:43;;;;;;;0.82;0.30;;;;;;;;;;5047429;28;20053;-46
2022/10/19 13:32:34;;;;;;;0.60;0.20;;;;;;;;;;5065394;28;20123;-47
2022/10/19 13:35:16;;;;;;;0.80;0.20;;;;;;;;;;5064449;28;20373;-46
2022/10/19 13:37:46;;;;;;;0.93;0.30;;;;;;;;;;5067435;28;20067;-45
2022/10/19 13:40:21;;;;;;;0.95;0.20;;;;;;;;;;5071405;28;20102;-46
2022/10/19 13:42:59;;;;;;;1.52;0.30;;;;;;;;;;5073543;28;20456;-45
2022/10/19 13:45:29;;;;;;;1.90;0.47;;;;;;;;;;5069333;28;20045;-45
2022/10/19 13:47:59;;;;;;;1.67;0.28;;;;;;;;;;5073619;28;20048;-46
2022/10/19 13:50:37;;;;;;;2.97;0.60;;;;;;;;;;5070796;28;20376;-46
2022/10/19 13:53:13;;;;;;;0.95;0.20;;;;;;;;;;5069816;28;20059;-47
2022/10/19 13:56:08;;;;;;;2.40;0.40;;;;;;;;;;5072057;28;20127;-47
2022/10/19 13:58:46;;;;;;;1.42;0.28;;;;;;;;;;5065168;28;20055;-47
2022/10/19 14:01:26;;;;;;;2.05;0.35;;;;;;;;;;5066867;28;20052;-45
2022/10/19 14:04:03;;;;;;;0.60;0.30;;;;;;;;;;5065008;28;20048;-45
2022/10/19 14:06:41;;;;;;;1.10;0.30;;;;;;;;;;5069884;28;20041;-45
2022/10/19 14:09:26;;;;;;;0.73;0.47;;;;;;;;;;5071631;28;20053;-46
2022/10/19 14:11:54;;;;;;;1.23;0.43;;;;;;;;;;5072427;28;20511;-44
2022/10/19 14:14:30;;;;;;;2.25;0.50;;;;;;;;;;5072718;28;20048;-44
2022/10/19 14:17:09;;;;;;;1.05;0.50;;;;;;;;;;5061076;28;20052;-45
2022/10/19 14:19:42;;;;;;;1.13;0.50;;;;;;;;;;5060890;28;20056;-47
2022/10/19 14:22:22;;;;;;;2.45;0.50;;;;;;;;;;5062181;28;20402;-45
2022/10/19 14:24:53;;;;;;;1.45;0.60;;;;;;;;;;5073663;28;20127;-45
2022/10/19 14:27:23;;;;;;;3.00;1.20;;;;;;;;;;5073668;28;20110;-46
2022/10/19 14:29:51;;;;;;;3.75;1.30;;;;;;;;;;5074021;28;20052;-46
2022/10/19 14:32:25;;;;;;;3.50;1.20;;;;;;;;;;5072666;28;20063;-45
2022/10/19 14:34:51;;;;;;;2.60;1.35;;;;;;;;;;5072505;28;20477;-46
2022/10/19 14:37:28;;;;;;;4.40;1.67;;;;;;;;;;5071751;28;20667;-46
2022/10/19 14:40:01;;;;;;;3.58;1.30;;;;;;;;;;5072538;28;20048;-46
2022/10/19 14:42:40;;;;;;;2.10;0.60;;;;;;;;;;5073813;28;20497;-46
2022/10/19 14:45:14;;;;;;;2.72;0.57;;;;;;;;;;5066749;28;20355;-45
2022/10/19 14:47:55;;;;;;;2.05;0.32;;;;;;;;;;5070856;28;20378;-43
2022/10/19 14:50:23;;;;;;;2.65;0.88;;;;;;;;;;5075581;28;20059;-44
2022/10/19 14:52:57;;;;;;;4.47;1.10;;;;;;;;;;5076185;28;20052;-46
2022/10/19 14:55:29;;;;;;;4.10;1.80;;;;;;;;;;5072617;28;20122;-44
2022/10/19 14:57:59;;;;;;;5.05;1.63;;;;;;;;;;5071412;28;20443;-45
2022/10/19 15:00:28;;;;;;;5.07;1.80;;;;;;;;;;5072255;28;20048;-44
2022/10/19 15:03:03;;;;;;;3.63;1.05;;;;;;;;;;5068275;28;20040;-45
2022/10/19 15:05:41;;;;;;;2.22;0.77;;;;;;;;;;5064764;28;20441;-45
2022/10/19 15:08:10;;;;;;;2.63;0.93;;;;;;;;;;5064612;28;20045;-46
2022/10/19 15:10:50;;;;;;;1.65;0.60;;;;;;;;;;5066470;28;20048;-47
2022/10/19 15:13:22;;;;;;;1.70;0.80;;;;;;;;;;5055583;28;20080;-48
2022/10/19 15:15:53;;;;;;;1.13;0.70;;;;;;;;;;5064643;28;20514;-44
2022/10/19 15:18:26;;;;;;;4.72;1.23;;;;;;;;;;5061277;28;20044;-47
2022/10/19 15:21:12;;;;;;;3.35;1.80;;;;;;;;;;5070854;28;20076;-45
2022/10/19 15:23:41;;;;;;;9.27;3.75;;;;;;;;;;5062150;28;20037;-45